Eclectic, Alabama
Current Conditions -  °F | °C
As of 1:15 PM on Monday 20 Oct 2014 (Local Time) from KALX Reporting Station
Clear Clear  
Wind Chill: 74°   Ceiling: Unl
Heat Index: 74°   Visibility: 10mi
Dew Point: 51°   Wind: 0mph
Humidity: 45%   Direction: NA
Pressure: 30.05"   Gusts: NA
Location:  32.64°N, 86.03°W
Report Text: KALX 201815Z AUTO 00000KT 10SM CLR 23/11 A3005 RMK AO2 T02310106
Loading
Personal Weather Stations






























Interactive Weather Map
Tropical Storm Tracking
New forecast layout! Learn more

10-Day Weather Forecast

Advertisements
Track Severe Weather on mobile